Time;durP1;ratioP1;P1;durP2;ratioP2;P2;SDS_P1;SDS_P2;PMS_P1;PMS_P2;Temp;Humidity;BMP_temperature;BMP_pressure;BME280_temperature;BME280_humidity;BME280_pressure;Samples;Min_cycle;Max_cycle;Signal;HPM_P1;HPM_P2
2021/04/09 00:01:32;;;;;;;9.30;8.40;;;7.30;25.00;;;;;;5075215;28;20491;-65
2021/04/09 00:03:58;;;;;;;9.70;8.20;;;7.30;24.90;;;;;;5075129;28;20171;-65
2021/04/09 00:06:24;;;;;;;9.43;8.47;;;7.00;25.60;;;;;;5074886;28;20457;-64
2021/04/09 00:08:50;;;;;;;9.13;8.30;;;7.20;25.40;;;;;;5074922;28;20415;-65
2021/04/09 00:11:16;;;;;;;9.33;8.40;;;7.10;25.90;;;;;;5075231;28;20176;-65
2021/04/09 00:13:42;;;;;;;12.83;7.97;;;7.40;25.70;;;;;;5074861;28;20493;-65
2021/04/09 00:16:07;;;;;;;9.27;8.20;;;7.30;25.00;;;;;;5074729;28;20202;-64
2021/04/09 00:18:33;;;;;;;10.60;8.80;;;7.30;25.60;;;;;;5074773;28;20183;-64
2021/04/09 00:20:59;;;;;;;9.60;8.57;;;7.40;25.80;;;;;;5074855;28;20213;-65
2021/04/09 00:23:24;;;;;;;9.57;8.73;;;7.50;25.70;;;;;;5056581;28;20195;-65
2021/04/09 00:25:50;;;;;;;9.33;8.20;;;7.50;24.80;;;;;;5074383;28;20211;-63
2021/04/09 00:28:15;;;;;;;9.43;7.83;;;7.50;24.90;;;;;;5074711;28;20639;-64
2021/04/09 00:30:41;;;;;;;8.87;8.07;;;7.50;25.30;;;;;;5074716;28;20163;-64
2021/04/09 00:33:07;;;;;;;8.10;7.40;;;7.50;25.00;;;;;;5074590;28;20224;-64
2021/04/09 00:35:32;;;;;;;10.57;8.97;;;7.50;24.60;;;;;;5074352;28;20219;-64
2021/04/09 00:37:58;;;;;;;10.40;8.47;;;7.40;25.10;;;;;;5074115;28;20187;-64
2021/04/09 00:40:24;;;;;;;8.77;7.90;;;7.60;24.70;;;;;;5055267;28;20188;-64
2021/04/09 00:42:50;;;;;;;10.43;8.87;;;7.50;24.80;;;;;;5065367;28;20180;-64
2021/04/09 00:45:16;;;;;;;14.93;8.00;;;7.50;24.90;;;;;;5061727;28;20854;-64
2021/04/09 00:47:42;;;;;;;9.70;8.70;;;7.60;24.90;;;;;;5063049;28;20496;-64
2021/04/09 00:50:09;;;;;;;9.60;8.80;;;7.60;24.80;;;;;;5054271;28;20429;-64
2021/04/09 00:52:37;;;;;;;9.70;8.47;;;7.50;25.00;;;;;;5054060;28;20413;-64
2021/04/09 00:55:05;;;;;;;11.30;8.73;;;7.30;25.60;;;;;;5052844;28;20798;-63
2021/04/09 00:57:31;;;;;;;9.83;9.03;;;7.20;25.70;;;;;;5070204;28;20425;-64
2021/04/09 00:59:58;;;;;;;9.33;8.60;;;7.20;25.70;;;;;;5065385;28;20428;-63
2021/04/09 01:02:23;;;;;;;8.93;8.03;;;7.20;25.70;;;;;;5072241;28;20429;-63
2021/04/09 01:04:49;;;;;;;7.93;7.23;;;7.20;24.70;;;;;;5073733;28;20439;-64
2021/04/09 01:07:15;;;;;;;8.43;7.20;;;6.90;25.00;;;;;;5074000;28;20565;-64
2021/04/09 01:09:40;;;;;;;8.17;7.37;;;6.90;25.30;;;;;;5073705;28;20178;-63
2021/04/09 01:12:07;;;;;;;8.90;8.00;;;6.80;25.50;;;;;;5054037;28;20685;-63
2021/04/09 01:14:33;;;;;;;9.10;8.07;;;6.60;25.50;;;;;;5053615;28;20189;-63
2021/04/09 01:17:03;;;;;;;9.83;8.57;;;6.30;26.20;;;;;;5053883;28;20523;-63
2021/04/09 01:20:07;;;;;;;9.33;8.43;;;6.40;25.90;;;;;;5053711;28;20406;-63
2021/04/09 01:22:41;;;;;;;11.17;7.13;;;6.60;25.80;;;;;;5053858;28;20501;-64
2021/04/09 01:25:38;;;;;;;7.90;7.20;;;6.90;25.50;;;;;;5053294;28;21031;-63
2021/04/09 01:28:11;;;;;;;8.53;7.73;;;7.00;25.50;;;;;;5053473;28;20956;-63
2021/04/09 01:30:53;;;;;;;9.53;8.07;;;7.10;25.40;;;;;;5053563;28;20905;-63
2021/04/09 01:33:48;;;;;;;7.60;6.90;;;7.10;25.50;;;;;;5053496;28;20402;-63
2021/04/09 01:36:47;;;;;;;7.97;7.17;;;7.10;25.40;;;;;;5051095;28;20446;-64
2021/04/09 01:39:35;;;;;;;8.27;7.57;;;7.10;25.60;;;;;;5052613;28;20422;-64
2021/04/09 01:42:04;;;;;;;10.13;6.90;;;7.00;25.70;;;;;;5052646;28;20461;-65
2021/04/09 01:44:33;;;;;;;9.03;8.17;;;7.10;25.60;;;;;;5052910;28;20829;-64
2021/04/09 01:47:00;;;;;;;8.40;7.17;;;7.10;25.50;;;;;;5053128;28;21053;-63
2021/04/09 01:49:28;;;;;;;10.50;7.30;;;7.20;25.30;;;;;;5053383;28;20993;-64
2021/04/09 01:51:55;;;;;;;8.13;7.33;;;7.20;25.00;;;;;;5053205;28;20399;-64
2021/04/09 01:54:22;;;;;;;8.07;7.27;;;7.10;25.20;;;;;;5052935;28;20784;-63
2021/04/09 01:56:50;;;;;;;8.63;7.53;;;6.90;25.90;;;;;;5053033;28;20438;-64
2021/04/09 01:59:17;;;;;;;8.20;7.40;;;6.80;26.50;;;;;;5052855;28;20406;-63
2021/04/09 02:01:48;;;;;;;8.10;7.10;;;7.00;26.50;;;;;;5053008;28;20902;-64
2021/04/09 02:04:17;;;;;;;8.80;7.90;;;7.10;26.40;;;;;;5052796;28;20975;-64
2021/04/09 02:06:44;;;;;;;9.30;8.50;;;7.00;26.40;;;;;;5052588;28;20462;-64
2021/04/09 02:09:14;;;;;;;7.90;7.10;;;7.00;26.50;;;;;;5052790;28;20785;-64
2021/04/09 02:11:41;;;;;;;8.07;7.37;;;7.00;26.40;;;;;;5052704;28;20445;-64
2021/04/09 02:14:12;;;;;;;9.07;7.60;;;7.00;26.50;;;;;;5052492;28;20411;-65
2021/04/09 02:16:39;;;;;;;8.37;7.53;;;7.10;26.60;;;;;;5052680;28;20442;-64
2021/04/09 02:19:05;;;;;;;8.10;7.40;;;7.00;26.50;;;;;;5052531;28;20866;-64
2021/04/09 02:21:35;;;;;;;8.50;7.63;;;7.00;26.70;;;;;;5052652;28;20441;-64
2021/04/09 02:24:03;;;;;;;9.47;8.53;;;6.90;26.40;;;;;;5052531;28;20442;-64
2021/04/09 02:26:29;;;;;;;9.17;8.00;;;6.90;26.70;;;;;;5052093;28;21013;-64
2021/04/09 02:28:55;;;;;;;8.73;7.40;;;6.90;26.70;;;;;;5051987;28;20418;-63
2021/04/09 02:31:24;;;;;;;7.73;7.03;;;7.10;26.60;;;;;;5051541;28;20425;-64
2021/04/09 02:33:50;;;;;;;8.00;7.30;;;7.10;26.50;;;;;;5052138;28;20180;-64
2021/04/09 02:36:22;;;;;;;7.77;7.07;;;7.00;26.50;;;;;;5051914;28;20819;-64
2021/04/09 02:38:53;;;;;;;8.43;7.63;;;7.00;26.70;;;;;;5054310;28;20201;-64
2021/04/09 02:41:21;;;;;;;7.63;6.87;;;7.00;26.50;;;;;;5056092;28;20433;-64
2021/04/09 02:43:47;;;;;;;8.30;7.60;;;7.00;26.30;;;;;;5072065;28;20453;-64
2021/04/09 02:46:20;;;;;;;8.70;6.50;;;7.00;26.40;;;;;;5054335;28;20501;-64
2021/04/09 02:48:56;;;;;;;7.93;7.20;;;6.90;26.60;;;;;;5058510;28;20424;-63
2021/04/09 02:51:23;;;;;;;7.90;7.10;;;7.00;26.60;;;;;;5052487;28;20421;-64
2021/04/09 02:53:49;;;;;;;8.60;7.33;;;6.90;26.60;;;;;;5051953;28;20414;-64
2021/04/09 02:56:17;;;;;;;6.30;5.70;;;6.80;26.80;;;;;;5051646;28;20426;-65
2021/04/09 02:58:45;;;;;;;8.30;7.50;;;6.80;26.70;;;;;;5063084;28;20426;-64
2021/04/09 03:01:11;;;;;;;7.77;7.07;;;6.70;26.90;;;;;;5063781;28;20791;-65
2021/04/09 03:03:37;;;;;;;7.00;6.50;;;6.70;27.50;;;;;;5051851;28;20418;-65
2021/04/09 03:06:05;;;;;;;8.03;7.27;;;6.80;27.20;;;;;;5051276;28;20208;-65
2021/04/09 03:08:31;;;;;;;10.53;6.47;;;6.80;26.90;;;;;;5051879;28;20414;-64
2021/04/09 03:11:03;;;;;;;7.97;7.27;;;6.90;26.90;;;;;;5051743;28;20757;-64
2021/04/09 03:13:30;;;;;;;7.53;6.50;;;7.00;26.80;;;;;;5052151;28;20430;-64
2021/04/09 03:16:01;;;;;;;7.20;6.47;;;6.90;26.70;;;;;;5051311;28;20841;-64
2021/04/09 03:18:38;;;;;;;7.67;6.90;;;6.80;27.00;;;;;;5050875;28;20783;-65
2021/04/09 03:21:05;;;;;;;8.13;7.33;;;6.70;26.80;;;;;;5051511;28;20752;-64
2021/04/09 03:23:31;;;;;;;6.87;6.27;;;6.80;26.70;;;;;;5051404;28;20472;-64
2021/04/09 03:25:57;;;;;;;7.00;6.30;;;6.70;26.70;;;;;;5051594;28;20866;-64
2021/04/09 03:28:23;;;;;;;6.37;5.23;;;6.80;26.70;;;;;;5051567;28;20203;-63
2021/04/09 03:30:51;;;;;;;6.60;6.00;;;6.90;26.20;;;;;;5051264;28;20455;-64
2021/04/09 03:33:18;;;;;;;6.43;5.80;;;7.00;26.10;;;;;;5051442;28;20178;-64
2021/04/09 03:35:44;;;;;;;9.17;7.20;;;7.00;26.10;;;;;;5051043;28;20426;-65
2021/04/09 03:38:14;;;;;;;7.67;7.03;;;6.80;26.20;;;;;;5051486;28;20779;-64
2021/04/09 03:40:41;;;;;;;8.10;7.30;;;6.90;26.00;;;;;;5033555;28;20232;-64
2021/04/09 03:43:13;;;;;;;6.90;6.30;;;6.90;26.00;;;;;;5051439;28;20414;-63
2021/04/09 03:45:39;;;;;;;6.23;5.73;;;7.00;25.70;;;;;;5050900;28;20508;-65
2021/04/09 03:48:05;;;;;;;6.37;5.77;;;7.10;25.30;;;;;;5051454;28;20506;-63
2021/04/09 03:50:31;;;;;;;6.60;6.00;;;7.10;25.10;;;;;;5051284;28;20770;-65
2021/04/09 03:52:57;;;;;;;6.43;5.83;;;7.10;25.10;;;;;;5033519;28;20414;-65
2021/04/09 03:55:22;;;;;;;6.70;5.53;;;7.10;24.90;;;;;;5050999;28;20202;-64
2021/04/09 03:57:48;;;;;;;6.50;5.90;;;7.00;25.00;;;;;;5051306;28;20446;-65
2021/04/09 04:00:14;;;;;;;7.73;6.97;;;7.20;24.70;;;;;;5051013;28;20184;-64
2021/04/09 04:02:40;;;;;;;7.20;6.60;;;7.20;24.60;;;;;;5051100;28;20795;-63
2021/04/09 04:05:06;;;;;;;6.83;5.83;;;7.10;24.70;;;;;;5050877;28;20474;-64
2021/04/09 04:07:32;;;;;;;9.33;6.57;;;7.20;24.60;;;;;;5051095;28;20180;-65
2021/04/09 04:09:58;;;;;;;7.33;6.73;;;7.30;24.50;;;;;;5056449;28;20430;-64
2021/04/09 04:12:24;;;;;;;8.43;6.57;;;7.30;24.40;;;;;;5061135;28;20791;-64
2021/04/09 04:14:49;;;;;;;6.97;6.30;;;7.40;24.40;;;;;;5061763;28;20561;-64
2021/04/09 04:17:15;;;;;;;7.33;6.73;;;7.20;24.90;;;;;;5052642;28;20710;-64
2021/04/09 04:19:40;;;;;;;7.37;6.67;;;7.30;25.10;;;;;;5062052;28;20233;-64
2021/04/09 04:22:06;;;;;;;9.80;6.37;;;7.20;25.30;;;;;;5052465;28;20196;-64
2021/04/09 04:24:32;;;;;;;6.73;6.23;;;7.30;25.50;;;;;;5060843;28;20210;-64
2021/04/09 04:26:57;;;;;;;6.70;6.07;;;7.10;25.50;;;;;;5066304;28;20204;-64
2021/04/09 04:29:23;;;;;;;8.20;7.40;;;7.10;25.60;;;;;;5052498;28;20419;-64
2021/04/09 04:31:48;;;;;;;12.10;6.90;;;7.10;25.30;;;;;;5054703;28;20537;-64
2021/04/09 04:34:14;;;;;;;9.90;6.30;;;7.10;25.50;;;;;;5054651;28;20176;-64
2021/04/09 04:36:39;;;;;;;6.90;6.00;;;7.20;25.20;;;;;;5068635;28;20573;-63
2021/04/09 04:39:05;;;;;;;7.80;6.80;;;7.20;25.30;;;;;;5074696;28;20178;-63
2021/04/09 04:41:31;;;;;;;8.00;7.20;;;7.20;25.50;;;;;;5066345;28;20192;-64
2021/04/09 04:43:57;;;;;;;10.37;8.80;;;7.10;25.90;;;;;;5051327;28;20449;-65
2021/04/09 04:46:24;;;;;;;7.50;6.40;;;7.20;25.50;;;;;;5074265;28;20292;-66
2021/04/09 04:48:49;;;;;;;8.30;6.77;;;7.30;25.30;;;;;;5072502;28;20778;-65
2021/04/09 04:51:15;;;;;;;7.83;7.03;;;7.20;25.00;;;;;;5049678;28;20422;-65
2021/04/09 04:53:40;;;;;;;7.90;7.20;;;7.10;25.40;;;;;;5074454;28;20224;-67
2021/04/09 04:56:06;;;;;;;9.30;6.60;;;7.10;25.00;;;;;;5073972;28;20196;-66
2021/04/09 04:58:32;;;;;;;7.87;7.07;;;7.30;25.30;;;;;;5074225;28;20183;-65
2021/04/09 05:00:57;;;;;;;7.83;7.23;;;7.20;25.30;;;;;;5074159;28;20194;-66
2021/04/09 05:03:23;;;;;;;8.80;7.30;;;7.30;25.20;;;;;;5069559;28;20600;-66
2021/04/09 05:05:48;;;;;;;7.80;7.00;;;7.20;25.50;;;;;;5060769;28;20263;-65
2021/04/09 05:08:14;;;;;;;10.80;7.97;;;7.10;25.40;;;;;;5060586;28;20218;-65
2021/04/09 05:10:39;;;;;;;7.50;6.70;;;7.20;25.60;;;;;;5058619;28;20646;-65
2021/04/09 05:13:05;;;;;;;8.30;7.60;;;7.30;25.40;;;;;;5073555;28;20637;-66
2021/04/09 05:15:30;;;;;;;8.40;7.50;;;7.30;25.20;;;;;;5073802;28;20714;-66
2021/04/09 05:17:56;;;;;;;9.80;8.80;;;7.40;25.10;;;;;;5055418;28;20599;-65
2021/04/09 05:20:22;;;;;;;7.00;6.50;;;7.20;25.20;;;;;;5053949;28;20176;-65
2021/04/09 05:22:47;;;;;;;8.63;7.83;;;7.30;25.80;;;;;;5053753;28;20168;-66
2021/04/09 05:25:12;;;;;;;8.93;7.37;;;7.30;25.80;;;;;;5053346;28;20809;-66
2021/04/09 05:27:38;;;;;;;7.70;7.00;;;7.10;25.90;;;;;;5064654;28;20183;-65
2021/04/09 05:30:05;;;;;;;8.03;7.23;;;7.20;25.90;;;;;;5073514;28;20217;-65
2021/04/09 05:32:30;;;;;;;9.13;7.13;;;7.30;25.70;;;;;;5073550;28;20197;-65
2021/04/09 05:34:56;;;;;;;9.13;6.63;;;7.40;25.60;;;;;;5073424;28;20432;-65
2021/04/09 05:37:21;;;;;;;8.30;7.60;;;7.40;25.60;;;;;;5073611;28;20210;-66
2021/04/09 05:39:47;;;;;;;7.63;6.93;;;7.50;25.30;;;;;;5073581;28;20172;-67
2021/04/09 05:42:12;;;;;;;7.43;6.60;;;7.50;25.50;;;;;;5072707;28;20182;-66
2021/04/09 05:44:38;;;;;;;7.70;7.10;;;7.50;24.90;;;;;;5055300;28;20175;-66
2021/04/09 05:47:07;;;;;;;8.70;7.53;;;7.50;25.30;;;;;;5073229;28;20250;-65
2021/04/09 05:49:32;;;;;;;8.90;7.30;;;7.60;25.10;;;;;;5073413;28;20243;-65
2021/04/09 05:51:58;;;;;;;8.27;7.47;;;7.60;25.20;;;;;;5073172;28;20441;-66
2021/04/09 05:54:23;;;;;;;8.43;7.53;;;7.60;24.90;;;;;;5073002;28;20167;-66
2021/04/09 05:56:49;;;;;;;10.83;7.60;;;7.60;25.00;;;;;;5057862;28;20227;-65
2021/04/09 05:59:15;;;;;;;11.20;8.57;;;7.70;24.90;;;;;;5052298;28;20255;-65
2021/04/09 06:01:41;;;;;;;8.57;7.43;;;7.70;25.40;;;;;;5053821;28;20203;-65
2021/04/09 06:04:07;;;;;;;13.03;9.37;;;7.80;25.80;;;;;;5035148;28;20494;-64
2021/04/09 06:06:32;;;;;;;10.40;9.30;;;7.90;25.70;;;;;;5052847;28;20903;-64
2021/04/09 06:08:58;;;;;;;9.33;8.20;;;7.90;25.40;;;;;;5052908;28;20305;-65
2021/04/09 06:11:23;;;;;;;6.53;5.97;;;8.00;25.00;;;;;;5059247;28;20191;-70
2021/04/09 06:13:51;;;;;;;9.93;6.23;;;10.10;61.00;;;;;;5069833;28;20187;-70
2021/04/09 06:16:17;;;;;;;7.43;5.90;;;13.00;38.10;;;;;;5054533;28;20255;-73
2021/04/09 06:18:42;;;;;;;6.83;6.23;;;15.20;30.20;;;;;;5092232;28;20443;-71
2021/04/09 06:21:08;;;;;;;13.80;7.03;;;15.20;26.80;;;;;;5091118;28;20175;-72
2021/04/09 06:23:33;;;;;;;7.47;6.67;;;15.10;23.40;;;;;;5093758;28;20183;-70
2021/04/09 06:25:59;;;;;;;7.20;6.40;;;15.40;25.50;;;;;;5081549;28;20263;-71
2021/04/09 06:28:24;;;;;;;11.10;9.10;;;15.40;21.00;;;;;;5060516;28;20176;-68
2021/04/09 06:30:50;;;;;;;9.87;8.97;;;14.00;14.60;;;;;;5052496;28;20172;-68
2021/04/09 06:33:15;;;;;;;11.17;10.07;;;12.10;17.10;;;;;;5052391;28;20255;-67
2021/04/09 06:35:41;;;;;;;18.80;9.67;;;11.00;18.30;;;;;;5051997;28;20679;-67
2021/04/09 06:38:06;;;;;;;14.37;9.00;;;10.70;18.90;;;;;;5034303;28;20257;-67
2021/04/09 06:40:33;;;;;;;11.30;8.33;;;10.30;19.80;;;;;;5052049;28;20188;-67
2021/04/09 06:43:00;;;;;;;9.27;8.27;;;10.00;20.30;;;;;;5052173;28;20187;-67
2021/04/09 06:45:27;;;;;;;11.07;7.60;;;9.90;21.90;;;;;;5051647;28;20966;-67
2021/04/09 06:47:53;;;;;;;13.20;7.27;;;9.90;20.70;;;;;;5062489;28;20491;-67
2021/04/09 06:50:19;;;;;;;11.50;8.60;;;9.80;21.50;;;;;;5054286;28;20423;-67
2021/04/09 06:52:45;;;;;;;12.70;7.50;;;9.70;20.60;;;;;;5064297;28;20430;-67
2021/04/09 06:55:11;;;;;;;8.63;7.10;;;9.80;22.20;;;;;;5051641;28;20219;-67
2021/04/09 06:57:39;;;;;;;7.53;6.77;;;9.80;21.70;;;;;;5034035;28;20418;-67
2021/04/09 07:00:10;;;;;;;7.70;6.57;;;9.80;21.80;;;;;;5058464;28;20928;-67
2021/04/09 07:02:37;;;;;;;9.03;5.97;;;9.80;22.40;;;;;;5071885;28;20414;-67
2021/04/09 07:05:04;;;;;;;7.40;6.70;;;9.70;20.70;;;;;;5064579;28;20454;-67
2021/04/09 07:07:29;;;;;;;7.97;7.17;;;9.90;21.50;;;;;;5069949;28;20901;-68
2021/04/09 07:09:55;;;;;;;5.53;4.97;;;9.80;20.10;;;;;;5066930;28;20438;-67
2021/04/09 07:12:25;;;;;;;6.83;6.23;;;9.70;19.70;;;;;;5051803;28;20198;-67
2021/04/09 07:14:53;;;;;;;6.10;5.60;;;9.80;20.30;;;;;;5051210;28;20223;-67
2021/04/09 07:17:44;;;;;;;7.20;5.27;;;9.80;19.90;;;;;;5056140;28;20905;-66
2021/04/09 07:20:18;;;;;;;6.27;5.30;;;9.80;19.70;;;;;;5053669;28;20946;-67
2021/04/09 07:22:46;;;;;;;8.37;5.07;;;9.80;21.00;;;;;;5066078;28;20733;-68
2021/04/09 07:25:14;;;;;;;5.30;5.00;;;9.90;19.70;;;;;;5051134;28;20470;-67
2021/04/09 07:27:42;;;;;;;7.83;5.77;;;9.90;19.10;;;;;;5053406;28;20411;-67
2021/04/09 07:30:09;;;;;;;5.20;4.70;;;9.70;19.10;;;;;;5071504;28;20456;-66
2021/04/09 07:32:36;;;;;;;5.80;5.40;;;9.80;19.20;;;;;;5070936;28;20406;-67
2021/04/09 07:35:10;;;;;;;5.17;4.77;;;9.70;19.10;;;;;;5060829;28;20453;-67
2021/04/09 07:37:57;;;;;;;9.20;4.83;;;9.80;20.00;;;;;;5053830;28;20406;-69
2021/04/09 07:40:28;;;;;;;7.97;5.10;;;9.90;19.20;;;;;;5068207;28;20410;-67
2021/04/09 07:42:55;;;;;;;6.00;5.40;;;10.10;18.00;;;;;;5051186;28;20406;-67
2021/04/09 07:45:22;;;;;;;5.03;4.63;;;9.90;19.20;;;;;;5060586;28;20497;-67
2021/04/09 07:47:55;;;;;;;5.70;5.20;;;10.00;17.90;;;;;;5071408;28;20419;-68
2021/04/09 07:50:35;;;;;;;5.97;5.10;;;10.00;18.10;;;;;;5058022;28;20411;-67
2021/04/09 07:53:01;;;;;;;4.93;4.53;;;10.00;18.20;;;;;;5051283;28;20417;-68
2021/04/09 07:55:31;;;;;;;5.70;5.20;;;10.10;17.80;;;;;;5050722;28;20442;-68
2021/04/09 07:58:11;;;;;;;5.33;4.93;;;10.10;18.00;;;;;;5063404;28;20274;-68
2021/04/09 08:00:37;;;;;;;5.40;4.90;;;10.20;17.90;;;;;;5055680;28;20433;-66
2021/04/09 08:03:03;;;;;;;6.13;4.80;;;10.30;17.90;;;;;;5051239;28;20425;-66
2021/04/09 08:05:28;;;;;;;8.00;5.60;;;10.40;17.70;;;;;;5054196;28;20199;-67
2021/04/09 08:07:54;;;;;;;5.30;4.90;;;10.50;17.50;;;;;;5055170;28;20413;-65
2021/04/09 08:10:27;;;;;;;5.63;5.10;;;10.60;17.60;;;;;;5055142;28;20225;-66
2021/04/09 08:12:54;;;;;;;9.00;5.13;;;10.50;17.50;;;;;;5057165;28;20175;-66
2021/04/09 08:15:25;;;;;;;5.77;5.30;;;10.50;17.70;;;;;;5074699;28;20479;-68
2021/04/09 08:18:05;;;;;;;6.47;5.43;;;10.60;17.50;;;;;;5074938;28;20402;-68
2021/04/09 08:20:34;;;;;;;6.60;6.10;;;10.70;17.40;;;;;;5056948;28;20867;-68
2021/04/09 08:23:14;;;;;;;5.70;5.20;;;10.60;17.20;;;;;;5071617;28;20423;-68
2021/04/09 08:25:41;;;;;;;5.87;5.33;;;10.60;17.40;;;;;;5054430;28;20466;-67
2021/04/09 08:28:10;;;;;;;6.20;5.20;;;10.80;17.40;;;;;;5054702;28;20410;-68
2021/04/09 08:30:37;;;;;;;6.03;5.27;;;10.70;17.10;;;;;;5054665;28;20417;-69
2021/04/09 08:33:03;;;;;;;7.87;7.20;;;10.80;17.50;;;;;;5054633;28;20398;-67
2021/04/09 08:35:29;;;;;;;5.90;5.40;;;10.90;17.40;;;;;;5054434;28;20422;-67
2021/04/09 08:37:58;;;;;;;6.80;5.40;;;10.90;17.20;;;;;;5054664;28;20941;-67
2021/04/09 08:40:23;;;;;;;6.50;5.90;;;10.90;17.20;;;;;;5054630;28;20261;-67
2021/04/09 08:42:49;;;;;;;6.43;5.87;;;10.90;17.20;;;;;;5054515;28;20511;-68
2021/04/09 08:45:15;;;;;;;6.70;5.03;;;11.00;17.70;;;;;;5054044;28;20709;-68
2021/04/09 08:47:42;;;;;;;5.80;5.20;;;11.10;16.70;;;;;;5054199;28;20598;-66
2021/04/09 08:50:13;;;;;;;6.00;5.40;;;11.10;16.20;;;;;;5054412;28;20490;-67
2021/04/09 08:52:44;;;;;;;5.37;4.97;;;11.00;16.00;;;;;;5057218;28;20508;-67
2021/04/09 08:55:14;;;;;;;4.90;4.50;;;11.10;16.60;;;;;;5062287;28;20468;-67
2021/04/09 08:57:42;;;;;;;5.07;4.67;;;11.20;15.70;;;;;;5062021;28;20422;-67
2021/04/09 09:00:11;;;;;;;5.80;5.20;;;11.30;15.80;;;;;;5062424;28;20501;-67
2021/04/09 09:02:41;;;;;;;4.03;3.80;;;12.10;22.90;;;;;;5061604;28;20422;-67
2021/04/09 09:05:30;;;;;;;5.00;4.23;;;13.60;23.90;;;;;;5064150;28;20430;-67
2021/04/09 09:07:58;;;;;;;5.47;4.40;;;14.50;17.50;;;;;;5053906;28;20410;-66
2021/04/09 09:10:29;;;;;;;4.83;4.13;;;13.20;15.80;;;;;;5055516;28;20766;-67
2021/04/09 09:13:15;;;;;;;4.87;4.20;;;13.10;15.00;;;;;;5053388;28;20409;-67
2021/04/09 09:15:44;;;;;;;6.57;5.20;;;12.70;15.80;;;;;;5052534;28;20451;-69
2021/04/09 09:18:42;;;;;;;5.10;4.60;;;12.60;13.40;;;;;;5053699;28;20441;-66
2021/04/09 09:21:13;;;;;;;4.47;4.17;;;12.00;13.40;;;;;;5053421;28;20988;-67
2021/04/09 09:23:58;;;;;;;4.67;4.17;;;12.00;13.20;;;;;;5053407;28;20438;-66
2021/04/09 09:26:40;;;;;;;5.50;4.63;;;11.90;13.50;;;;;;5053164;28;20480;-68
2021/04/09 09:29:14;;;;;;;4.83;4.40;;;11.90;13.30;;;;;;5053078;28;20424;-69
2021/04/09 09:31:46;;;;;;;4.90;4.50;;;11.80;13.10;;;;;;5053493;28;20905;-68
2021/04/09 09:34:21;;;;;;;12.00;5.37;;;11.80;13.20;;;;;;5052996;28;20419;-69
2021/04/09 09:37:08;;;;;;;5.80;4.60;;;11.80;13.20;;;;;;5053576;28;20473;-65
2021/04/09 09:39:48;;;;;;;3.80;3.60;;;12.00;13.50;;;;;;5053286;28;20421;-68
2021/04/09 09:42:34;;;;;;;4.90;4.40;;;12.10;12.70;;;;;;5053048;28;20402;-68
2021/04/09 09:45:08;;;;;;;4.47;4.17;;;12.10;12.70;;;;;;5052871;28;20873;-66
2021/04/09 09:47:41;;;;;;;5.03;4.53;;;12.20;12.70;;;;;;5063679;28;20414;-67
2021/04/09 09:50:12;;;;;;;6.40;4.40;;;12.20;12.70;;;;;;5061736;28;20425;-68
2021/04/09 09:52:53;;;;;;;4.10;3.70;;;12.10;12.00;;;;;;5070896;28;20432;-70
2021/04/09 09:55:29;;;;;;;4.80;3.97;;;12.20;12.00;;;;;;5065699;28;20466;-69
2021/04/09 09:58:12;;;;;;;5.03;4.10;;;12.30;12.10;;;;;;5055497;28;20432;-70
2021/04/09 10:00:42;;;;;;;5.33;4.47;;;12.40;12.00;;;;;;5059963;28;20418;-69
2021/04/09 10:03:18;;;;;;;4.10;3.70;;;12.50;11.90;;;;;;5055147;28;20446;-70
2021/04/09 10:05:49;;;;;;;5.67;3.97;;;12.60;11.60;;;;;;5057999;28;20457;-67
2021/04/09 10:08:16;;;;;;;4.00;3.70;;;12.50;11.70;;;;;;5072565;28;20594;-67
2021/04/09 10:10:52;;;;;;;4.97;3.40;;;12.70;11.30;;;;;;5072037;28;20408;-67
2021/04/09 10:13:24;;;;;;;4.33;3.33;;;12.80;11.20;;;;;;5053043;28;20915;-67
2021/04/09 10:15:53;;;;;;;7.63;4.40;;;12.80;11.60;;;;;;5055783;28;20445;-69
2021/04/09 10:18:19;;;;;;;4.33;4.00;;;12.80;11.40;;;;;;5062213;28;20418;-69
2021/04/09 10:20:47;;;;;;;4.10;3.80;;;12.90;11.50;;;;;;5072037;28;20417;-69
2021/04/09 10:23:14;;;;;;;4.10;3.80;;;13.00;11.70;;;;;;5058549;28;20180;-68
2021/04/09 10:25:40;;;;;;;5.07;4.00;;;13.00;11.40;;;;;;5057282;28;20540;-71
2021/04/09 10:28:14;;;;;;;4.50;3.90;;;12.90;11.90;;;;;;5070501;28;20500;-69
2021/04/09 10:30:40;;;;;;;4.90;4.50;;;13.00;11.90;;;;;;5052171;28;20418;-69
2021/04/09 10:33:06;;;;;;;4.27;3.87;;;13.10;11.60;;;;;;5051876;28;20414;-70
2021/04/09 10:35:33;;;;;;;22.30;5.30;;;13.20;11.70;;;;;;5051229;28;20199;-69
2021/04/09 10:38:16;;;;;;;4.33;4.00;;;13.20;11.70;;;;;;5068812;28;20190;-70
2021/04/09 10:40:56;;;;;;;7.77;4.73;;;13.20;11.30;;;;;;5054297;28;20784;-69
2021/04/09 10:43:35;;;;;;;6.13;4.17;;;13.30;11.80;;;;;;5072292;28;20406;-67
2021/04/09 10:46:13;;;;;;;7.60;4.20;;;13.40;11.90;;;;;;5071746;28;20452;-68
2021/04/09 10:48:41;;;;;;;8.00;4.20;;;13.30;12.00;;;;;;5071788;28;20425;-68
2021/04/09 10:51:08;;;;;;;11.13;4.50;;;13.30;12.00;;;;;;5071789;28;20516;-68
2021/04/09 10:53:35;;;;;;;4.50;4.10;;;13.40;12.10;;;;;;5066634;28;20407;-67
2021/04/09 10:56:09;;;;;;;7.40;4.73;;;13.40;11.90;;;;;;5051557;28;20434;-66
2021/04/09 10:58:35;;;;;;;4.60;4.20;;;13.40;12.20;;;;;;5051774;28;20472;-68
2021/04/09 11:01:01;;;;;;;5.67;3.73;;;13.30;12.10;;;;;;5051580;28;20419;-67
2021/04/09 11:03:29;;;;;;;6.07;4.47;;;13.30;12.70;;;;;;5051431;28;20414;-68
2021/04/09 11:05:54;;;;;;;4.20;3.90;;;13.30;12.90;;;;;;5051183;28;20261;-68
2021/04/09 11:08:39;;;;;;;4.77;4.30;;;13.30;12.40;;;;;;5051832;28;20406;-70
2021/04/09 11:11:12;;;;;;;4.90;4.40;;;13.40;12.70;;;;;;5051481;28;20171;-70
2021/04/09 11:13:41;;;;;;;5.17;4.73;;;13.40;12.30;;;;;;5051601;28;20452;-69
2021/04/09 11:16:08;;;;;;;6.90;4.60;;;13.50;12.40;;;;;;5058535;28;20968;-70
2021/04/09 11:18:54;;;;;;;5.70;4.30;;;13.50;12.20;;;;;;5050952;28;20450;-69
2021/04/09 11:21:45;;;;;;;4.33;3.93;;;13.60;12.20;;;;;;5055494;28;20424;-69
2021/04/09 11:24:13;;;;;;;4.30;3.87;;;13.70;11.90;;;;;;5071040;28;20945;-67
2021/04/09 11:26:38;;;;;;;4.67;4.23;;;13.80;12.80;;;;;;5071421;28;20469;-67
2021/04/09 11:29:04;;;;;;;4.73;4.43;;;13.80;11.80;;;;;;5071550;28;20487;-68
2021/04/09 11:31:30;;;;;;;4.77;4.00;;;13.80;11.60;;;;;;5071307;28;20193;-71
2021/04/09 11:34:07;;;;;;;4.03;3.73;;;13.90;12.70;;;;;;5061719;28;20267;-67
2021/04/09 11:36:59;;;;;;;4.40;3.97;;;13.90;11.80;;;;;;5033083;28;20362;-66
2021/04/09 11:39:24;;;;;;;4.63;4.20;;;13.90;12.30;;;;;;5046473;28;20438;-68
2021/04/09 11:42:02;;;;;;;4.83;4.40;;;14.00;11.80;;;;;;5051359;28;20882;-70
2021/04/09 11:44:34;;;;;;;5.43;4.60;;;13.90;11.70;;;;;;5051136;28;20168;-69
2021/04/09 11:47:12;;;;;;;4.70;4.40;;;13.90;12.20;;;;;;5050576;28;20489;-68
2021/04/09 11:49:38;;;;;;;4.30;4.00;;;14.00;12.40;;;;;;5050964;28;20409;-68
2021/04/09 11:52:06;;;;;;;5.77;3.87;;;14.00;11.70;;;;;;5051094;28;20402;-69
2021/04/09 11:54:36;;;;;;;3.93;3.50;;;14.10;11.80;;;;;;5050535;28;20475;-69
2021/04/09 11:57:03;;;;;;;3.77;3.47;;;14.20;11.40;;;;;;5051132;28;20476;-68
2021/04/09 11:59:34;;;;;;;4.03;3.43;;;14.20;11.20;;;;;;5051320;28;20740;-69
2021/04/09 12:02:16;;;;;;;3.73;3.40;;;14.20;10.40;;;;;;5050775;28;20752;-69
2021/04/09 12:04:41;;;;;;;3.67;3.37;;;14.30;10.20;;;;;;5065987;28;20774;-69
2021/04/09 12:07:22;;;;;;;4.67;3.63;;;14.50;10.70;;;;;;5070952;28;20457;-68
2021/04/09 12:09:58;;;;;;;3.20;2.93;;;14.60;9.60;;;;;;5069955;28;20217;-68
2021/04/09 12:12:24;;;;;;;7.43;3.50;;;14.70;9.50;;;;;;5063321;28;20486;-68
2021/04/09 12:14:52;;;;;;;3.17;2.87;;;14.90;9.40;;;;;;5057002;28;20782;-67
2021/04/09 12:17:20;;;;;;;6.07;3.90;;;14.90;9.10;;;;;;5052119;28;20418;-68
2021/04/09 12:19:47;;;;;;;3.70;3.30;;;15.00;9.20;;;;;;5051511;28;20506;-69
2021/04/09 12:22:14;;;;;;;3.20;2.90;;;15.00;9.10;;;;;;5070703;28;20414;-70
2021/04/09 12:24:40;;;;;;;3.87;3.23;;;15.00;9.00;;;;;;5057063;28;20470;-69
2021/04/09 12:27:06;;;;;;;3.90;2.90;;;15.10;8.50;;;;;;5050825;28;20458;-69
2021/04/09 12:29:33;;;;;;;3.40;3.10;;;15.10;8.70;;;;;;5050848;28;20882;-69
2021/04/09 12:31:59;;;;;;;4.30;3.20;;;15.20;8.30;;;;;;5050829;28;20410;-66
2021/04/09 12:34:24;;;;;;;3.87;3.57;;;15.20;8.70;;;;;;5050629;28;20408;-68
2021/04/09 12:36:51;;;;;;;3.60;3.13;;;15.20;8.30;;;;;;5050591;28;20796;-67
2021/04/09 12:39:19;;;;;;;3.93;3.60;;;15.30;8.50;;;;;;5050696;28;20665;-67
2021/04/09 12:41:45;;;;;;;4.23;2.90;;;15.30;8.50;;;;;;5070868;28;20439;-67
2021/04/09 12:44:11;;;;;;;3.43;3.10;;;15.40;8.80;;;;;;5070527;28;20953;-69
2021/04/09 12:46:37;;;;;;;7.10;2.80;;;15.40;9.10;;;;;;5070667;28;20449;-68
2021/04/09 12:49:03;;;;;;;2.80;2.60;;;15.50;8.80;;;;;;5070868;28;20463;-71
2021/04/09 12:51:30;;;;;;;6.03;3.70;;;15.50;8.40;;;;;;5061594;28;20595;-68
2021/04/09 12:53:56;;;;;;;3.60;3.30;;;15.50;8.40;;;;;;5053960;28;20437;-66
2021/04/09 12:56:22;;;;;;;3.43;2.93;;;15.60;8.80;;;;;;5053942;28;20484;-69
2021/04/09 12:58:47;;;;;;;3.47;3.17;;;15.70;9.20;;;;;;5054310;28;20510;-67
2021/04/09 13:01:13;;;;;;;3.67;3.30;;;15.70;7.90;;;;;;5053922;28;20477;-66
2021/04/09 13:03:39;;;;;;;3.27;3.07;;;15.70;8.80;;;;;;5053973;28;20326;-67